This is the latest recevied weather packets stored in our database for station/object KJ5JYX. If no packets are shown the sender has not sent any weather packets the latest 1 day(s).
| Time | Temp. | Humidity | Pressure | Rain* | Wind** | Luminosity | Snow |
|---|---|---|---|---|---|---|---|
| 1778083650 | 14.44° C | 99% | 1013.6 hPa | 0 mm | - | 102 W/m² | - |
| 1778078574 | 16.11° C | 96% | 1016.4 hPa | 27.69 mm | - | 1 W/m² | - |
| 1778077365 | 16.67° C | 93% | 1012 hPa | 0 mm | - | 8 W/m² | - |
| 1778077063 | 16.67° C | 93% | 1012.8 hPa | 0 mm | - | 6 W/m² | - |
| 1778076761 | 17.22° C | 93% | 1012.6 hPa | 0 mm | - | 6 W/m² | - |
| 1778075548 | 18.33° C | 94% | 1012.2 hPa | 0 mm | - | 6 W/m² | - |
| 1778075245 | 18.89° C | 95% | 1012.3 hPa | 0 mm | - | 7 W/m² | - |
| 1778074639 | 19.44° C | 97% | 1011.3 hPa | 0 mm | - | 12 W/m² | - |
| 1778073729 | 20.56° C | 98% | 1010.7 hPa | 0 mm | - | 50 W/m² | - |
| 1778073427 | 21.67° C | 98% | 1011 hPa | 0 mm | - | 29 W/m² | - |
| 1778072517 | 23.33° C | 99% | 1010.7 hPa | 0 mm | - | 77 W/m² | - |
| 1778072215 | 23.33° C | 99% | 1010.8 hPa | 0 mm | - | 63 W/m² | - |
| 1778070704 | 22.78° C | 99% | 1010.3 hPa | 0 mm | - | 26 W/m² | - |
| 1778070098 | 22.78° C | 99% | 1010.4 hPa | 0 mm | - | 19 W/m² | - |
| 1778069190 | 22.78° C | 99% | 1010.4 hPa | 0 mm | - | 3 W/m² | - |
| 1778068283 | 23.33° C | 98% | 1010.4 hPa | 1.78 mm | - | 1 W/m² | - |
| 1778067980 | 23.33° C | 98% | 1010.2 hPa | 0 mm | - | 0 W/m² | - |
| 1778067678 | 23.33° C | 98% | 1010.2 hPa | 0 mm | - | 0 W/m² | - |
| 1778067376 | 23.33° C | 98% | 1010.3 hPa | 0 mm | - | 0 W/m² | - |
| 1778067073 | 23.33° C | 97% | 1010.1 hPa | 0 mm | - | 0 W/m² | - |
| 1778065256 | 23.33° C | 97% | 1010.3 hPa | 0 mm | - | 0 W/m² | - |
| 1778064650 | 23.33° C | 96% | 1010.3 hPa | 0 mm | - | 0 W/m² | - |
| 1778064348 | 23.33° C | 96% | 1010.4 hPa | 0 mm | - | 0 W/m² | - |
| 1778063439 | 23.33° C | 95% | 1010.2 hPa | 0 mm | - | 0 W/m² | - |
| 1778062531 | 23.89° C | 93% | 1010.1 hPa | 0 mm | - | 0 W/m² | - |
* Rain latest hour (hover to see other rain measurements)
** Current wind speed in m/s (hover to see current wind gust speed)